Time;durP1;ratioP1;P1;durP2;ratioP2;P2;SDS_P1;SDS_P2;PMS_P1;PMS_P2;Temp;Humidity;BMP_temperature;BMP_pressure;BME280_temperature;BME280_humidity;BME280_pressure;Samples;Min_cycle;Max_cycle;Signal;HPM_P1;HPM_P2
2021/12/13 00:02:40;;;;;;;;;;;;;;;10.39;81.31;102456.03;5041727;28;19921;-60
2021/12/13 00:05:11;;;;;;;;;;;;;;;10.41;81.23;102453.00;5048648;28;19946;-59
2021/12/13 00:07:39;;;;;;;;;;;;;;;10.40;81.24;102443.84;5037151;28;19917;-59
2021/12/13 00:10:11;;;;;;;;;;;;;;;10.40;81.07;102440.22;5021610;28;19928;-59
2021/12/13 00:12:38;;;;;;;;;;;;;;;10.40;81.29;102441.06;5033042;28;19917;-59
2021/12/13 00:15:06;;;;;;;;;;;;;;;10.41;81.29;102442.75;5040338;28;19929;-60
2021/12/13 00:17:44;;;;;;;;;;;;;;;10.41;81.27;102442.75;5029362;28;19953;-59
2021/12/13 00:20:13;;;;;;;;;;;;;;;10.43;81.17;102448.13;5025421;28;20368;-60
2021/12/13 00:22:41;;;;;;;;;;;;;;;10.43;81.19;102445.34;5038692;28;20078;-60
2021/12/13 00:25:26;;;;;;;;;;;;;;;10.42;81.12;102441.72;5043362;28;19928;-59
2021/12/13 00:27:57;;;;;;;;;;;;;;;10.40;80.99;102446.63;5031000;28;19930;-59
2021/12/13 00:30:25;;;;;;;;;;;;;;;10.39;81.10;102447.69;5017000;28;19944;-59
2021/12/13 00:33:01;;;;;;;;;;;;;;;10.40;80.96;102443.00;5034146;28;19925;-60
2021/12/13 00:35:33;;;;;;;;;;;;;;;10.40;80.92;102446.63;5016425;28;19922;-60
2021/12/13 00:38:00;;;;;;;;;;;;;;;10.41;81.13;102456.66;5017716;28;19928;-60
2021/12/13 00:40:33;;;;;;;;;;;;;;;10.40;80.95;102451.31;5036356;28;19959;-60
2021/12/13 00:43:07;;;;;;;;;;;;;;;10.39;80.90;102452.38;5042597;28;19921;-59
2021/12/13 00:45:34;;;;;;;;;;;;;;;10.40;80.71;102454.09;5022563;28;19927;-60
2021/12/13 00:48:01;;;;;;;;;;;;;;;10.40;80.98;102457.72;5043166;28;19920;-60
2021/12/13 00:50:37;;;;;;;;;;;;;;;10.39;80.80;102461.56;5031810;28;19971;-60
2021/12/13 00:53:03;;;;;;;;;;;;;;;10.40;80.89;102460.50;5022360;28;19929;-60
2021/12/13 00:55:30;;;;;;;;;;;;;;;10.40;80.95;102459.63;5033950;28;19917;-60
2021/12/13 00:58:04;;;;;;;;;;;;;;;10.39;80.82;102460.72;5038622;28;19921;-61
2021/12/13 01:00:32;;;;;;;;;;;;;;;10.38;80.94;102457.09;5049689;28;19966;-61
2021/12/13 01:03:00;;;;;;;;;;;;;;;10.38;80.57;102459.88;5051058;28;19925;-60
2021/12/13 01:05:25;;;;;;;;;;;;;;;10.39;80.68;102469.03;5038020;28;19947;-61
2021/12/13 01:07:59;;;;;;;;;;;;;;;10.38;80.84;102465.41;5051890;28;19921;-61
2021/12/13 01:10:43;;;;;;;;;;;;;;;10.37;80.78;102469.25;5049255;28;19924;-61
2021/12/13 01:13:21;;;;;;;;;;;;;;;10.38;80.69;102482.06;5051440;28;19978;-60
2021/12/13 01:15:55;;;;;;;;;;;;;;;10.38;80.68;102476.53;5046970;28;20338;-61
2021/12/13 01:18:31;;;;;;;;;;;;;;;10.38;80.85;102476.53;5046328;28;19928;-61
2021/12/13 01:21:08;;;;;;;;;;;;;;;10.36;80.61;102475.00;5045518;28;19920;-61
2021/12/13 01:23:41;;;;;;;;;;;;;;;10.37;80.44;102473.94;5047775;28;19921;-60
2021/12/13 01:28:49;;;;;;;;;;;;;;;10.29;80.73;102478.63;5043592;28;19960;-61
2021/12/13 01:31:20;;;;;;;;;;;;;;;10.27;80.70;102478.00;5045808;28;20477;-61
2021/12/13 01:33:46;;;;;;;;;;;;;;;10.28;80.78;102476.91;5046325;28;19954;-61
2021/12/13 01:36:14;;;;;;;;;;;;;;;10.28;80.59;102479.69;5032405;28;19925;-60
2021/12/13 01:38:45;;;;;;;;;;;;;;;10.30;80.55;102485.06;5048421;28;19920;-60
2021/12/13 01:41:16;;;;;;;;;;;;;;;10.31;80.66;102486.75;5050631;28;19921;-61
2021/12/13 01:43:44;;;;;;;;;;;;;;;10.32;80.60;102491.22;5049463;28;20003;-60
2021/12/13 01:46:09;;;;;;;;;;;;;;;10.32;80.53;102482.91;5049768;28;19927;-60
2021/12/13 01:48:37;;;;;;;;;;;;;;;10.32;80.59;102491.22;5044060;28;20004;-61
2021/12/13 01:51:06;;;;;;;;;;;;;;;10.32;80.55;102489.31;5047483;28;19927;-60
2021/12/13 01:53:34;;;;;;;;;;;;;;;10.31;80.53;102498.72;5052523;28;20019;-61
2021/12/13 01:56:01;;;;;;;;;;;;;;;10.32;80.22;102494.00;5047666;28;19921;-61
2021/12/13 02:01:09;;;;;;;;;;;;;;;10.30;80.40;102493.38;5054287;28;20303;-60
2021/12/13 02:03:48;;;;;;;;;;;;;;;10.27;80.34;102496.56;5047087;28;19928;-60
2021/12/13 02:06:20;;;;;;;;;;;;;;;10.28;80.42;102501.06;5053973;28;19967;-61
2021/12/13 02:08:50;;;;;;;;;;;;;;;10.29;80.29;102503.59;5055971;28;20380;-61
2021/12/13 02:11:16;;;;;;;;;;;;;;;10.30;80.36;102510.03;5053379;28;19947;-61
2021/12/13 02:14:03;;;;;;;;;;;;;;;10.30;80.31;102507.25;5055421;28;19929;-61
2021/12/13 02:17:16;;;;;;;;;;;;;;;10.27;80.03;102499.34;5051140;28;19921;-61
2021/12/13 02:19:20;;;;;;;;;;;;;;;10.26;80.27;102508.75;5042129;28;19921;-61
2021/12/13 02:21:49;;;;;;;;;;;;;;;10.25;80.28;102484.81;5054156;28;19929;-61
2021/12/13 02:24:14;;;;;;;;;;;;;;;10.24;80.15;102483.09;5054020;28;20448;-60
2021/12/13 02:26:41;;;;;;;;;;;;;;;10.24;80.53;102478.38;5054241;28;19929;-61
2021/12/13 02:29:21;;;;;;;;;;;;;;;10.24;80.20;102485.84;5054736;28;19921;-58
2021/12/13 02:31:46;;;;;;;;;;;;;;;10.24;80.15;102483.94;5050441;28;19928;-60
2021/12/13 02:34:13;;;;;;;;;;;;;;;10.26;80.20;102489.31;5053063;28;19921;-60
2021/12/13 02:36:42;;;;;;;;;;;;;;;10.25;80.44;102494.00;5055589;28;19921;-61
2021/12/13 02:39:13;;;;;;;;;;;;;;;10.26;80.23;102506.81;5051799;28;19927;-61
2021/12/13 02:41:39;;;;;;;;;;;;;;;10.26;80.23;102501.28;5054122;28;20008;-61
2021/12/13 02:44:22;;;;;;;;;;;;;;;10.26;80.09;102503.19;5053389;28;20004;-61
2021/12/13 02:46:47;;;;;;;;;;;;;;;10.26;80.26;102501.28;5053360;28;19920;-61
2021/12/13 02:49:14;;;;;;;;;;;;;;;10.28;80.23;102506.59;5055167;28;20351;-60
2021/12/13 02:51:43;;;;;;;;;;;;;;;10.29;80.07;102503.59;5052395;28;19920;-61
2021/12/13 02:54:21;;;;;;;;;;;;;;;10.28;79.90;102506.59;5061719;28;19920;-61
2021/12/13 02:56:52;;;;;;;;;;;;;;;10.28;80.09;102503.81;5055682;28;19927;-61
2021/12/13 02:59:20;;;;;;;;;;;;;;;10.28;80.16;102503.81;5061710;28;19996;-61
2021/12/13 03:01:49;;;;;;;;;;;;;;;10.28;80.07;102492.72;5063605;28;20322;-61
2021/12/13 03:04:18;;;;;;;;;;;;;;;10.27;80.28;102500.19;5053110;28;19921;-60
2021/12/13 03:06:49;;;;;;;;;;;;;;;10.27;79.84;102500.19;5054239;28;19948;-60
2021/12/13 03:09:17;;;;;;;;;;;;;;;10.28;80.01;102503.81;5043127;28;19925;-61
2021/12/13 03:11:43;;;;;;;;;;;;;;;10.28;80.33;102503.81;5035575;28;19928;-61
2021/12/13 03:14:11;;;;;;;;;;;;;;;10.25;80.01;102499.53;5045201;28;19924;-61
2021/12/13 03:16:43;;;;;;;;;;;;;;;10.21;79.91;102494.59;5052634;28;20288;-61
2021/12/13 03:19:21;;;;;;;;;;;;;;;10.21;80.11;102492.66;5048271;28;19921;-61
2021/12/13 03:22:05;;;;;;;;;;;;;;;10.24;79.89;102485.84;5050619;28;19929;-61
2021/12/13 03:24:42;;;;;;;;;;;;;;;10.22;80.07;102491.63;5051996;28;20003;-61
2021/12/13 03:27:07;;;;;;;;;;;;;;;10.24;79.91;102494.19;5053747;28;19927;-61
2021/12/13 03:29:41;;;;;;;;;;;;;;;10.24;79.88;102496.94;5052828;28;20015;-60
2021/12/13 03:32:09;;;;;;;;;;;;;;;10.21;79.86;102497.38;5054455;28;19979;-60
2021/12/13 03:34:39;;;;;;;;;;;;;;;10.22;79.82;102501.88;5048172;28;19921;-61
2021/12/13 03:37:11;;;;;;;;;;;;;;;10.22;79.70;102510.19;5053601;28;20011;-61
2021/12/13 03:39:43;;;;;;;;;;;;;;;10.20;79.64;102504.00;5052617;28;19924;-60
2021/12/13 03:42:11;;;;;;;;;;;;;;;10.21;79.82;102501.00;5053016;28;19917;-61
2021/12/13 03:44:46;;;;;;;;;;;;;;;10.22;79.77;102504.66;5047053;28;19974;-61
2021/12/13 03:47:13;;;;;;;;;;;;;;;10.22;79.30;102502.72;5051197;28;20058;-61
2021/12/13 03:49:43;;;;;;;;;;;;;;;10.19;79.72;102494.81;5051349;28;20011;-61
2021/12/13 03:52:10;;;;;;;;;;;;;;;10.15;79.99;102495.44;5052550;28;19993;-61
2021/12/13 03:54:37;;;;;;;;;;;;;;;10.13;79.69;102497.56;5052603;28;19921;-61
2021/12/13 03:57:02;;;;;;;;;;;;;;;10.16;79.67;102505.47;5052890;28;19921;-61
2021/12/13 03:59:28;;;;;;;;;;;;;;;10.16;79.96;102505.47;5052461;28;20016;-61
2021/12/13 04:01:58;;;;;;;;;;;;;;;10.16;79.42;102500.78;5047399;28;19980;-61
2021/12/13 04:04:32;;;;;;;;;;;;;;;10.17;79.67;102501.63;5047953;28;20007;-61
2021/12/13 04:07:00;;;;;;;;;;;;;;;10.16;79.72;102503.56;5054110;28;19921;-61
2021/12/13 04:09:29;;;;;;;;;;;;;;;10.15;79.78;102510.19;5051385;28;19932;-60
2021/12/13 04:11:55;;;;;;;;;;;;;;;10.17;79.77;102501.63;5049166;28;19975;-61
2021/12/13 04:14:36;;;;;;;;;;;;;;;10.15;79.67;102498.22;5054223;28;19929;-61
2021/12/13 04:17:22;;;;;;;;;;;;;;;10.13;79.74;102503.13;5051315;28;20106;-59
2021/12/13 04:19:48;;;;;;;;;;;;;;;10.14;79.70;102499.28;5053018;28;19948;-59
2021/12/13 04:22:16;;;;;;;;;;;;;;;10.15;79.75;102515.72;5051765;28;19964;-60
2021/12/13 04:24:43;;;;;;;;;;;;;;;10.15;79.59;102515.72;5051378;28;19992;-60
2021/12/13 04:27:14;;;;;;;;;;;;;;;10.15;79.74;102510.19;5050040;28;19921;-60
2021/12/13 04:29:40;;;;;;;;;;;;;;;10.15;79.60;102514.88;5053476;28;19964;-59
2021/12/13 04:32:18;;;;;;;;;;;;;;;10.14;79.50;102515.91;5051146;28;19967;-60
2021/12/13 04:34:43;;;;;;;;;;;;;;;10.13;79.47;102517.84;5052356;28;20376;-60
2021/12/13 04:37:13;;;;;;;;;;;;;;;10.13;79.49;102520.63;5051553;28;19916;-60
2021/12/13 04:39:40;;;;;;;;;;;;;;;10.14;79.36;102514.03;5051735;28;19924;-60
2021/12/13 04:42:08;;;;;;;;;;;;;;;10.15;79.56;102506.56;5053228;28;20368;-60
2021/12/13 04:44:36;;;;;;;;;;;;;;;10.16;79.60;102511.03;5049424;28;20455;-60
2021/12/13 04:47:04;;;;;;;;;;;;;;;10.16;79.41;102514.66;5052867;28;19951;-60
2021/12/13 04:49:31;;;;;;;;;;;;;;;10.14;79.47;102516.81;5051523;28;20019;-60
2021/12/13 04:51:59;;;;;;;;;;;;;;;10.14;79.58;102507.59;5050886;28;20282;-60
2021/12/13 04:54:26;;;;;;;;;;;;;;;10.15;79.54;102512.94;5051733;28;19917;-60
2021/12/13 04:56:52;;;;;;;;;;;;;;;10.14;79.38;102508.47;5050891;28;19921;-61
2021/12/13 04:59:18;;;;;;;;;;;;;;;10.14;79.25;102507.59;5051741;28;19921;-60
2021/12/13 05:01:47;;;;;;;;;;;;;;;10.15;79.21;102498.22;5048810;28;19932;-59
2021/12/13 05:04:13;;;;;;;;;;;;;;;10.16;79.34;102498.00;5052960;28;19943;-60
2021/12/13 05:06:39;;;;;;;;;;;;;;;10.15;79.36;102504.63;5051089;28;19928;-60
2021/12/13 05:09:06;;;;;;;;;;;;;;;10.14;79.30;102502.94;5050914;28;19925;-61
2021/12/13 05:11:35;;;;;;;;;;;;;;;10.13;79.24;102508.66;5051724;28;19971;-60
2021/12/13 05:14:01;;;;;;;;;;;;;;;10.15;79.34;102517.66;5050311;28;19928;-60
2021/12/13 05:16:38;;;;;;;;;;;;;;;10.14;79.10;102508.47;5051335;28;19921;-60
2021/12/13 05:19:05;;;;;;;;;;;;;;;10.15;79.40;102520.44;5051485;28;19920;-60
2021/12/13 05:21:37;;;;;;;;;;;;;;;10.15;79.27;102514.88;5048265;28;19956;-60
2021/12/13 05:24:04;;;;;;;;;;;;;;;10.15;79.26;102523.19;5047366;28;19932;-60
2021/12/13 05:26:29;;;;;;;;;;;;;;;10.11;79.15;102519.13;5048898;28;19968;-60
2021/12/13 05:28:54;;;;;;;;;;;;;;;10.10;79.15;102521.06;5052840;28;19960;-60
2021/12/13 05:31:23;;;;;;;;;;;;;;;10.11;79.17;102521.91;5050501;28;19927;-60
2021/12/13 05:33:50;;;;;;;;;;;;;;;10.07;79.20;102514.00;5054240;28;19929;-60
2021/12/13 05:36:21;;;;;;;;;;;;;;;10.07;79.27;102516.78;5055938;28;20371;-60
2021/12/13 05:38:48;;;;;;;;;;;;;;;10.08;79.00;102520.41;5056230;28;19951;-60
2021/12/13 05:41:24;;;;;;;;;;;;;;;10.09;79.23;102514.63;5055219;28;20371;-60
2021/12/13 05:43:52;;;;;;;;;;;;;;;10.10;78.86;102512.75;5053463;28;19921;-60
2021/12/13 05:46:23;;;;;;;;;;;;;;;10.12;79.10;102518.91;5055432;28;19921;-60
2021/12/13 05:48:51;;;;;;;;;;;;;;;10.11;79.05;102521.91;5053846;28;19920;-60
2021/12/13 05:51:22;;;;;;;;;;;;;;;10.09;79.09;102520.19;5056763;28;19963;-60
2021/12/13 05:53:53;;;;;;;;;;;;;;;10.10;79.01;102512.75;5054634;28;19970;-59
2021/12/13 05:56:18;;;;;;;;;;;;;;;10.10;78.93;102512.75;5053789;28;19928;-58
2021/12/13 05:58:43;;;;;;;;;;;;;;;10.09;79.01;102511.00;5055176;28;19920;-59
2021/12/13 06:01:12;;;;;;;;;;;;;;;10.10;79.13;102523.84;5051132;28;19951;-59
2021/12/13 06:03:39;;;;;;;;;;;;;;;10.11;79.04;102524.69;5048657;28;20375;-58
2021/12/13 06:06:06;;;;;;;;;;;;;;;10.12;78.77;102526.38;5055865;28;19929;-61
2021/12/13 06:08:33;;;;;;;;;;;;;;;10.12;79.00;102526.38;5054016;28;19928;-60
2021/12/13 06:11:03;;;;;;;;;;;;;;;10.13;78.82;102525.31;5049529;28;20026;-61
2021/12/13 06:13:44;;;;;;;;;;;;;;;10.12;78.76;102526.38;5053844;28;20363;-61
2021/12/13 06:16:10;;;;;;;;;;;;;;;10.11;78.76;102519.13;5049513;28;20346;-60
2021/12/13 06:18:40;;;;;;;;;;;;;;;10.10;78.72;102526.59;5044652;28;19925;-60
2021/12/13 06:21:12;;;;;;;;;;;;;;;10.11;78.79;102533.00;5051580;28;19921;-60
2021/12/13 06:23:37;;;;;;;;;;;;;;;10.12;78.81;102534.72;5051715;28;19995;-60
2021/12/13 06:26:05;;;;;;;;;;;;;;;10.11;78.77;102533.00;5054652;28;19933;-60
2021/12/13 06:28:35;;;;;;;;;;;;;;;10.13;78.77;102539.19;5054147;28;20019;-60
2021/12/13 06:31:03;;;;;;;;;;;;;;;10.11;78.61;102535.78;5055459;28;20337;-59
2021/12/13 06:33:43;;;;;;;;;;;;;;;10.10;78.56;102546.03;5052240;28;19932;-60
2021/12/13 06:36:08;;;;;;;;;;;;;;;10.09;78.65;102539.59;5049720;28;19928;-59
2021/12/13 06:38:45;;;;;;;;;;;;;;;10.08;78.61;102549.00;5051309;28;20271;-60
2021/12/13 06:41:10;;;;;;;;;;;;;;;10.09;78.68;102553.47;5050898;28;19967;-58
2021/12/13 06:43:41;;;;;;;;;;;;;;;10.07;78.54;102547.28;5052913;28;19964;-59
2021/12/13 06:46:12;;;;;;;;;;;;;;;10.06;78.52;102541.94;5048702;28;20303;-59
2021/12/13 06:48:44;;;;;;;;;;;;;;;10.06;78.64;102548.38;5049420;28;19921;-59
2021/12/13 06:51:12;;;;;;;;;;;;;;;10.05;78.57;102552.19;5049125;28;20390;-59
2021/12/13 06:53:37;;;;;;;;;;;;;;;10.04;78.62;102550.47;5051057;28;19959;-60
2021/12/13 06:56:19;;;;;;;;;;;;;;;10.02;78.66;102544.28;5054467;28;19968;-59
2021/12/13 06:58:48;;;;;;;;;;;;;;;10.03;78.76;102554.31;5051353;28;19982;-60
2021/12/13 07:01:13;;;;;;;;;;;;;;;10.04;78.61;102560.72;5051761;28;19936;-60
2021/12/13 07:03:39;;;;;;;;;;;;;;;10.06;78.63;102565.00;5049734;28;19920;-60
2021/12/13 07:06:04;;;;;;;;;;;;;;;10.06;78.53;102562.22;5052245;28;20377;-60
2021/12/13 07:08:31;;;;;;;;;;;;;;;10.06;78.32;102559.47;5044668;28;19928;-59
2021/12/13 07:10:59;;;;;;;;;;;;;;;10.05;78.53;102565.19;5050393;28;20311;-59
2021/12/13 07:13:36;;;;;;;;;;;;;;;10.04;78.28;102569.03;5046809;28;19964;-59
2021/12/13 07:16:06;;;;;;;;;;;;;;;10.03;78.50;102557.09;5050842;28;19970;-59
2021/12/13 07:18:45;;;;;;;;;;;;;;;10.03;78.33;102568.19;5050490;28;19954;-60
2021/12/13 07:21:13;;;;;;;;;;;;;;;10.02;78.75;102569.25;5050242;28;19920;-59
2021/12/13 07:23:57;;;;;;;;;;;;;;;10.04;78.36;102569.03;5049656;28;19921;-59
2021/12/13 07:26:37;;;;;;;;;;;;;;;10.05;78.55;102581.84;5044986;28;19928;-59
2021/12/13 07:29:04;;;;;;;;;;;;;;;10.04;78.22;102572.66;5051340;28;20288;-59
2021/12/13 07:31:30;;;;;;;;;;;;;;;10.01;78.21;102588.88;5048298;28;20031;-59
2021/12/13 07:34:05;;;;;;;;;;;;;;;9.95;78.27;102582.25;5049363;28;20439;-59
2021/12/13 07:36:31;;;;;;;;;;;;;;;9.94;78.35;102575.00;5049552;28;19925;-58
2021/12/13 07:39:00;;;;;;;;;;;;;;;9.92;78.67;102587.34;5049323;28;19927;-59
2021/12/13 07:41:40;;;;;;;;;;;;;;;9.94;78.57;102582.44;5044887;28;20011;-59
2021/12/13 07:44:06;;;;;;;;;;;;;;;9.94;78.44;102586.09;5045940;28;19935;-59
2021/12/13 07:46:32;;;;;;;;;;;;;;;9.91;78.12;102586.50;5048396;28;19924;-58
2021/12/13 07:49:03;;;;;;;;;;;;;;;9.92;78.61;102593.75;5043252;28;20406;-59
2021/12/13 07:51:30;;;;;;;;;;;;;;;9.90;78.38;102597.78;5049011;28;19968;-58
2021/12/13 07:53:58;;;;;;;;;;;;;;;9.87;78.43;102601.00;5036856;28;20261;-58
2021/12/13 07:56:38;;;;;;;;;;;;;;;9.88;78.41;102598.00;5047839;28;20075;-57
2021/12/13 07:59:06;;;;;;;;;;;;;;;9.89;78.10;102601.63;5052020;28;19921;-58
2021/12/13 08:01:33;;;;;;;;;;;;;;;9.94;78.98;102601.84;5049164;28;19927;-58
2021/12/13 08:04:01;;;;;;;;;;;;;;;10.01;78.59;102611.06;5052851;28;19924;-59
2021/12/13 08:06:28;;;;;;;;;;;;;;;10.03;78.52;102606.19;5047449;28;20015;-58
2021/12/13 08:08:55;;;;;;;;;;;;;;;10.04;78.53;102597.63;5049716;28;19925;-60
2021/12/13 08:11:35;;;;;;;;;;;;;;;10.02;78.40;102599.78;5049615;28;20008;-58
2021/12/13 08:14:01;;;;;;;;;;;;;;;9.98;78.17;102604.03;5050868;28;19957;-59
2021/12/13 08:16:31;;;;;;;;;;;;;;;10.00;78.34;102599.13;5049509;28;19967;-59
2021/12/13 08:19:05;;;;;;;;;;;;;;;9.97;78.24;102607.84;5046634;28;20077;-60
2021/12/13 08:21:35;;;;;;;;;;;;;;;9.95;78.08;102610.00;5048450;28;19928;-59
2021/12/13 08:24:01;;;;;;;;;;;;;;;9.95;78.30;102604.44;5046651;28;19929;-59
2021/12/13 08:26:31;;;;;;;;;;;;;;;9.96;78.47;102603.38;5052688;28;19928;-60
2021/12/13 08:28:58;;;;;;;;;;;;;;;9.98;78.32;102597.59;5040362;28;19929;-60
2021/12/13 08:31:23;;;;;;;;;;;;;;;9.98;78.43;102604.03;5048392;28;19925;-60
2021/12/13 08:33:52;;;;;;;;;;;;;;;10.01;78.48;102606.38;5052004;28;19921;-61
2021/12/13 08:36:23;;;;;;;;;;;;;;;10.00;78.25;102606.59;5045829;28;19921;-60
2021/12/13 08:38:51;;;;;;;;;;;;;;;9.96;78.25;102603.38;5044634;28;19948;-60
2021/12/13 08:41:16;;;;;;;;;;;;;;;9.95;78.16;102604.44;5045977;28;19927;-60
2021/12/13 08:43:45;;;;;;;;;;;;;;;9.96;78.25;102605.28;5049606;28;19924;-60
2021/12/13 08:46:12;;;;;;;;;;;;;;;9.98;78.32;102608.69;5050092;28;19921;-59
2021/12/13 08:48:45;;;;;;;;;;;;;;;9.97;78.23;102596.75;5044725;28;19924;-59
2021/12/13 08:51:15;;;;;;;;;;;;;;;9.99;78.41;102600.19;5045648;28;19925;-59
2021/12/13 08:53:40;;;;;;;;;;;;;;;9.98;78.14;102608.69;5047839;28;20011;-59
2021/12/13 08:56:08;;;;;;;;;;;;;;;9.98;78.27;102608.69;5048661;28;20047;-59
2021/12/13 08:58:34;;;;;;;;;;;;;;;9.96;77.92;102617.25;5047142;28;20288;-59
2021/12/13 09:01:00;;;;;;;;;;;;;;;9.96;78.13;102617.25;5050846;28;20063;-59
2021/12/13 09:03:43;;;;;;;;;;;;;;;9.94;78.21;102608.28;5047985;28;20023;-58
2021/12/13 09:06:17;;;;;;;;;;;;;;;9.93;78.66;102611.25;5050338;28;20437;-59
2021/12/13 09:08:45;;;;;;;;;;;;;;;9.96;78.15;102606.13;5047903;28;19956;-60
2021/12/13 09:11:20;;;;;;;;;;;;;;;10.02;78.08;102619.19;5042818;28;19928;-60
2021/12/13 09:13:54;;;;;;;;;;;;;;;10.08;79.39;102621.13;5045589;28;20338;-59
2021/12/13 09:16:23;;;;;;;;;;;;;;;10.19;78.15;102621.63;5048430;28;20412;-59
2021/12/13 09:19:06;;;;;;;;;;;;;;;10.17;78.15;102616.25;5043486;28;19956;-60
2021/12/13 09:21:31;;;;;;;;;;;;;;;10.16;77.97;102616.47;5039385;28;19920;-60
2021/12/13 09:23:56;;;;;;;;;;;;;;;10.14;77.83;102626.91;5041360;28;19944;-60
2021/12/13 09:26:24;;;;;;;;;;;;;;;10.11;78.08;102625.41;5045061;28;19924;-59
2021/12/13 09:28:52;;;;;;;;;;;;;;;10.12;77.89;102626.28;5045331;28;19928;-60
2021/12/13 09:31:21;;;;;;;;;;;;;;;10.08;77.94;102626.69;5045057;28;19921;-60
2021/12/13 09:33:57;;;;;;;;;;;;;;;10.09;78.11;102641.41;5047988;28;19931;-60
2021/12/13 09:36:26;;;;;;;;;;;;;;;10.07;77.92;102636.06;5044291;28;20066;-61
2021/12/13 09:38:58;;;;;;;;;;;;;;;10.09;78.14;102645.03;5049709;28;19921;-60
2021/12/13 09:41:30;;;;;;;;;;;;;;;10.07;77.81;102655.50;5043272;28;19955;-61
2021/12/13 09:43:55;;;;;;;;;;;;;;;10.09;78.05;102660.81;5043809;28;19963;-60
2021/12/13 09:46:38;;;;;;;;;;;;;;;10.09;77.90;102667.22;5041859;28;19971;-60
2021/12/13 09:49:27;;;;;;;;;;;;;;;10.08;77.90;102668.31;5043541;28;19920;-60
2021/12/13 09:51:55;;;;;;;;;;;;;;;10.05;77.94;102682.56;5004859;28;20350;-62
2021/12/13 09:54:23;;;;;;;;;;;;;;;10.07;77.86;102683.25;5047247;28;20345;-62
2021/12/13 09:56:50;;;;;;;;;;;;;;;10.08;77.69;102690.50;5049146;28;19925;-61
2021/12/13 09:59:19;;;;;;;;;;;;;;;10.07;77.86;102690.72;5043589;28;20342;-61
2021/12/13 10:01:44;;;;;;;;;;;;;;;10.06;77.80;102689.84;5044393;28;19936;-62
2021/12/13 10:04:15;;;;;;;;;;;;;;;10.05;77.92;102688.13;5050517;28;19921;-60
2021/12/13 10:06:40;;;;;;;;;;;;;;;10.05;78.05;102688.13;5045472;28;19921;-60
2021/12/13 10:09:16;;;;;;;;;;;;;;;10.06;77.70;102689.84;5048693;28;19946;-61
2021/12/13 10:11:47;;;;;;;;;;;;;;;10.08;77.75;102689.63;5046715;28;20386;-61
2021/12/13 10:14:13;;;;;;;;;;;;;;;10.04;77.67;102678.09;5046430;28;19924;-61
2021/12/13 10:16:41;;;;;;;;;;;;;;;10.08;77.87;102681.31;5047639;28;19920;-61
2021/12/13 10:19:22;;;;;;;;;;;;;;;10.09;77.50;102675.56;5050318;28;20439;-62
2021/12/13 10:21:48;;;;;;;;;;;;;;;10.11;77.89;102672.59;5048569;28;19929;-62
2021/12/13 10:24:16;;;;;;;;;;;;;;;10.10;77.83;102668.13;5047634;28;20578;-61
2021/12/13 10:26:43;;;;;;;;;;;;;;;10.10;77.70;102676.44;5053724;28;20011;-62
2021/12/13 10:29:10;;;;;;;;;;;;;;;10.12;77.61;102676.22;5051220;28;19924;-59
2021/12/13 10:31:40;;;;;;;;;;;;;;;10.11;77.65;102677.28;5052615;28;19925;-61
2021/12/13 10:34:07;;;;;;;;;;;;;;;10.09;77.49;102671.91;5051329;28;20485;-61
2021/12/13 10:36:33;;;;;;;;;;;;;;;10.05;77.29;102674.25;5051202;28;19924;-62
2021/12/13 10:39:01;;;;;;;;;;;;;;;10.05;77.32;102667.84;5051854;28;19928;-61
2021/12/13 10:41:32;;;;;;;;;;;;;;;10.04;77.64;102672.53;5046640;28;20007;-63
2021/12/13 10:43:59;;;;;;;;;;;;;;;10.06;77.66;102667.66;5051121;28;20273;-60
2021/12/13 10:46:35;;;;;;;;;;;;;;;10.08;77.49;102661.91;5047625;28;19964;-62
2021/12/13 10:49:04;;;;;;;;;;;;;;;10.09;77.55;102660.81;5046759;28;19927;-62
2021/12/13 10:51:32;;;;;;;;;;;;;;;10.09;77.35;102660.81;5046866;28;19921;-62
2021/12/13 10:53:59;;;;;;;;;;;;;;;10.06;77.45;102664.00;5042863;28;19916;-61
2021/12/13 10:56:27;;;;;;;;;;;;;;;10.07;77.55;102665.75;5042910;28;19936;-61
2021/12/13 10:58:54;;;;;;;;;;;;;;;10.06;77.47;102669.56;5036149;28;20011;-61
2021/12/13 11:01:28;;;;;;;;;;;;;;;10.08;77.39;102670.22;5025620;28;19968;-62
2021/12/13 11:03:54;;;;;;;;;;;;;;;10.08;77.44;102665.53;5031620;28;19936;-61
2021/12/13 11:06:21;;;;;;;;;;;;;;;10.10;77.42;102662.56;5030100;28;20442;-61
2021/12/13 11:08:46;;;;;;;;;;;;;;;10.12;77.50;102656.78;5033477;28;19922;-61
2021/12/13 11:11:19;;;;;;;;;;;;;;;10.13;77.50;102653.81;5025721;28;20753;-62
2021/12/13 11:13:46;;;;;;;;;;;;;;;10.11;77.06;102652.31;5033565;28;19927;-62
2021/12/13 11:16:20;;;;;;;;;;;;;;;10.11;77.35;102652.31;5032169;28;20319;-64
2021/12/13 11:18:45;;;;;;;;;;;;;;;10.12;77.33;102652.09;5026176;28;19927;-61
2021/12/13 11:21:19;;;;;;;;;;;;;;;10.14;77.44;102647.22;5034601;28;20280;-61
2021/12/13 11:23:45;;;;;;;;;;;;;;;10.16;77.37;102649.78;5030293;28;20015;-61
2021/12/13 11:26:12;;;;;;;;;;;;;;;10.16;77.22;102647.84;5034928;28;20016;-61
2021/12/13 11:28:37;;;;;;;;;;;;;;;10.16;77.04;102645.06;5031510;28;19928;-61
2021/12/13 11:31:10;;;;;;;;;;;;;;;10.17;77.31;102641.22;5032752;28;20019;-62
2021/12/13 11:33:38;;;;;;;;;;;;;;;10.18;76.96;102648.50;5024588;28;19921;-62
2021/12/13 11:36:07;;;;;;;;;;;;;;;10.16;76.86;102644.22;5028986;28;19925;-61
2021/12/13 11:38:51;;;;;;;;;;;;;;;10.17;77.11;102648.69;5031413;28;19925;-60
2021/12/13 11:41:35;;;;;;;;;;;;;;;10.19;77.21;102641.88;5027045;28;20003;-61
2021/12/13 11:44:18;;;;;;;;;;;;;;;10.19;77.05;102652.13;5032903;28;20356;-60
2021/12/13 11:46:59;;;;;;;;;;;;;;;10.20;76.99;102651.06;5028576;28;19925;-61
2021/12/13 11:49:30;;;;;;;;;;;;;;;10.16;76.67;102647.00;5020298;28;19925;-63
2021/12/13 11:52:12;;;;;;;;;;;;;;;10.13;77.03;102639.94;5028899;28;19967;-62
2021/12/13 11:54:52;;;;;;;;;;;;;;;10.13;76.97;102644.63;5027984;28;19949;-62
2021/12/13 11:57:48;;;;;;;;;;;;;;;10.14;77.01;102649.09;5031299;28;19971;-63
2021/12/13 12:00:31;;;;;;;;;;;;;;;10.14;76.74;102650.00;5044682;28;19925;-62
2021/12/13 12:03:15;;;;;;;;;;;;;;;10.16;76.59;102652.53;5046684;28;19971;-62
2021/12/13 12:05:58;;;;;;;;;;;;;;;10.16;76.83;102641.44;5039679;28;20357;-62
2021/12/13 12:08:42;;;;;;;;;;;;;;;10.16;76.92;102635.91;5051794;28;20388;-62
2021/12/13 12:11:30;;;;;;;;;;;;;;;10.24;77.86;102635.72;5048758;28;19923;-61
2021/12/13 12:14:04;;;;;;;;;;;;;;;10.28;77.15;102632.34;5037764;28;20384;-62
2021/12/13 12:16:30;;;;;;;;;;;;;;;10.26;76.93;102628.94;5042749;28;20300;-61
2021/12/13 12:18:56;;;;;;;;;;;;;;;10.25;76.77;102618.88;5043542;28;19929;-62
2021/12/13 12:21:36;;;;;;;;;;;;;;;10.24;76.53;102631.00;5048974;28;19964;-61
2021/12/13 12:24:13;;;;;;;;;;;;;;;10.22;76.72;102633.16;5048029;28;19925;-61
2021/12/13 12:26:39;;;;;;;;;;;;;;;10.23;76.59;102631.22;5049571;28;19921;-61
2021/12/13 12:29:24;;;;;;;;;;;;;;;10.23;76.86;102622.91;5049905;28;19921;-62
2021/12/13 12:31:57;;;;;;;;;;;;;;;10.24;76.76;102624.63;5047643;28;20272;-61
2021/12/13 12:34:22;;;;;;;;;;;;;;;10.25;76.71;102626.34;5047230;28;19925;-59
2021/12/13 12:37:05;;;;;;;;;;;;;;;10.24;76.57;102625.47;5041473;28;19929;-60
2021/12/13 12:39:47;;;;;;;;;;;;;;;10.24;76.77;102632.94;5050177;28;19975;-60
2021/12/13 12:42:26;;;;;;;;;;;;;;;10.24;76.51;102631.00;5048504;28;19928;-60
2021/12/13 12:44:54;;;;;;;;;;;;;;;10.25;76.69;102629.13;5051511;28;19962;-60
2021/12/13 12:47:35;;;;;;;;;;;;;;;10.23;76.02;102632.09;5049548;28;20380;-60
2021/12/13 12:50:15;;;;;;;;;;;;;;;10.22;76.53;102626.75;5048065;28;19990;-60
2021/12/13 12:53:15;;;;;;;;;;;;;;;10.21;76.57;102633.34;5048199;28;19935;-60
2021/12/13 12:55:47;;;;;;;;;;;;;;;10.23;76.58;102636.78;5038969;28;19982;-60
2021/12/13 12:58:18;;;;;;;;;;;;;;;10.19;76.32;102638.25;5050678;28;19938;-60
2021/12/13 13:00:44;;;;;;;;;;;;;;;10.22;76.52;102635.06;5047854;28;20387;-61
2021/12/13 13:03:21;;;;;;;;;;;;;;;10.22;76.60;102635.94;5051825;28;19917;-60